Terminal Aerodrome Forecast
Issued by NWS

Home | Current Version | Previous Version | Text Only | Print | Product List | Glossary On
Versions: 1 2 3 4 5 6 7 8 9 10 11 12 13 14 15 16 17 18 19 20 21 22 23 24 25 26 27 28 29 30 31 32
000
FTAK31 PAJK 161121
TAFAWG
TAF
PAWG 161121Z 1612/1712 09010KT 6SM -RA BR BKN035 OVC040
      WS020/13030KT
      TEMPO 1612/1616 BKN025 OVC030
     FM161600 11008KT P6SM -SHRA OVC025
     FM161900 11006KT P6SM VCSH SCT030 OVC040
     FM170600 09006KT 6SM -RA BR BKN025 OVC035
     AMD LTD TO CLD VIS AND WIND 1612/1615=

USA.gov is the U.S. government's official web portal to all federal, state and local government web resources and services.